Time;durP1;ratioP1;P1;durP2;ratioP2;P2;SDS_P1;SDS_P2;PMS_P1;PMS_P2;Temp;Humidity;BMP_temperature;BMP_pressure;BME280_temperature;BME280_humidity;BME280_pressure;Samples;Min_cycle;Max_cycle;Signal;HPM_P1;HPM_P2
2022/11/09 00:01:20;;;;;;;12.95;3.10;;;;;;;;;;5053769;28;20069;-75
2022/11/09 00:03:46;;;;;;;7.45;2.88;;;;;;;;;;5054390;28;20056;-75
2022/11/09 00:06:12;;;;;;;13.77;3.55;;;;;;;;;;5054932;28;20037;-76
2022/11/09 00:08:39;;;;;;;9.07;2.55;;;;;;;;;;5057080;28;20529;-75
2022/11/09 00:11:10;;;;;;;11.65;3.20;;;;;;;;;;5037348;28;20037;-76
2022/11/09 00:13:37;;;;;;;4.78;3.33;;;;;;;;;;5055359;28;20148;-76
2022/11/09 00:16:03;;;;;;;6.22;2.55;;;;;;;;;;5031956;28;20037;-76
2022/11/09 00:18:29;;;;;;;12.25;2.40;;;;;;;;;;5056168;28;20119;-76
2022/11/09 00:20:56;;;;;;;11.07;2.30;;;;;;;;;;5056469;28;20111;-75
2022/11/09 00:23:22;;;;;;;12.82;2.50;;;;;;;;;;5056157;28;20164;-75
2022/11/09 00:25:48;;;;;;;5.75;2.50;;;;;;;;;;5047823;28;20098;-75
2022/11/09 00:28:14;;;;;;;5.07;2.60;;;;;;;;;;5055928;28;20091;-75
2022/11/09 00:30:41;;;;;;;5.93;2.20;;;;;;;;;;5037643;28;20095;-75
2022/11/09 00:33:07;;;;;;;8.68;1.85;;;;;;;;;;5055970;28;20053;-76
2022/11/09 00:35:33;;;;;;;5.22;1.55;;;;;;;;;;5057839;28;20041;-76
2022/11/09 00:37:59;;;;;;;3.58;1.30;;;;;;;;;;5052744;28;20033;-76
2022/11/09 00:40:25;;;;;;;6.85;2.35;;;;;;;;;;5053735;28;20045;-76
2022/11/09 00:42:51;;;;;;;3.20;2.08;;;;;;;;;;5032567;28;20522;-76
2022/11/09 00:45:17;;;;;;;3.40;1.30;;;;;;;;;;5031376;28;20546;-75
2022/11/09 00:47:44;;;;;;;3.80;0.95;;;;;;;;;;5058103;28;21061;-75
2022/11/09 00:50:10;;;;;;;4.18;0.95;;;;;;;;;;5056809;28;20052;-75
2022/11/09 00:52:36;;;;;;;3.78;1.05;;;;;;;;;;5057402;28;20110;-75
2022/11/09 00:55:02;;;;;;;5.75;2.17;;;;;;;;;;5054568;28;20966;-75
2022/11/09 00:57:28;;;;;;;4.88;2.20;;;;;;;;;;5038890;28;20600;-75
2022/11/09 00:59:54;;;;;;;1.92;1.00;;;;;;;;;;5056052;28;20531;-76
2022/11/09 01:02:20;;;;;;;4.20;1.10;;;;;;;;;;5031241;28;20605;-76
2022/11/09 01:04:46;;;;;;;2.33;1.13;;;;;;;;;;5056042;28;20071;-75
2022/11/09 01:07:12;;;;;;;5.13;1.20;;;;;;;;;;5029908;28;20052;-75
2022/11/09 01:09:38;;;;;;;9.05;1.70;;;;;;;;;;5055497;28;20526;-76
2022/11/09 01:12:04;;;;;;;2.97;1.40;;;;;;;;;;5056941;28;20048;-76
2022/11/09 01:14:30;;;;;;;4.00;1.15;;;;;;;;;;5054263;28;20458;-75
2022/11/09 01:16:57;;;;;;;5.60;1.30;;;;;;;;;;5030373;28;20545;-76
2022/11/09 01:19:23;;;;;;;3.25;1.05;;;;;;;;;;5056954;28;20045;-75
2022/11/09 01:21:49;;;;;;;4.68;2.03;;;;;;;;;;5056249;28;20037;-76
2022/11/09 01:24:15;;;;;;;4.57;1.00;;;;;;;;;;5032276;28;20041;-75
2022/11/09 01:26:41;;;;;;;4.40;2.15;;;;;;;;;;5056152;28;20044;-76
2022/11/09 01:29:07;;;;;;;5.78;2.25;;;;;;;;;;5054692;28;20052;-76
2022/11/09 01:31:33;;;;;;;6.75;1.10;;;;;;;;;;5055646;28;20129;-76
2022/11/09 01:33:59;;;;;;;1.60;0.80;;;;;;;;;;5031496;28;20095;-75
2022/11/09 01:36:25;;;;;;;7.03;2.88;;;;;;;;;;5056220;28;21192;-75
2022/11/09 01:38:51;;;;;;;2.50;1.10;;;;;;;;;;5056456;28;20587;-75
2022/11/09 01:41:20;;;;;;;4.70;1.30;;;;;;;;;;5055474;28;20049;-76
2022/11/09 01:44:02;;;;;;;4.93;0.77;;;;;;;;;;5056050;28;20488;-76
2022/11/09 01:46:30;;;;;;;1.30;0.80;;;;;;;;;;5055836;28;20052;-75
2022/11/09 01:48:59;;;;;;;2.30;0.98;;;;;;;;;;5055896;28;20171;-76
2022/11/09 01:51:41;;;;;;;4.50;0.80;;;;;;;;;;5054381;28;20071;-75
2022/11/09 01:54:14;;;;;;;3.23;0.90;;;;;;;;;;5056130;28;20529;-75
2022/11/09 01:56:40;;;;;;;2.15;1.05;;;;;;;;;;5037423;28;21002;-76
2022/11/09 01:59:09;;;;;;;2.50;1.02;;;;;;;;;;5056141;28;20608;-76
2022/11/09 02:01:36;;;;;;;3.10;0.80;;;;;;;;;;5037596;28;20041;-76
2022/11/09 02:04:22;;;;;;;3.05;1.85;;;;;;;;;;5030977;28;20102;-75
2022/11/09 02:06:49;;;;;;;1.63;0.88;;;;;;;;;;5055032;28;20048;-76
2022/11/09 02:09:18;;;;;;;1.92;0.68;;;;;;;;;;5051907;28;20049;-75
2022/11/09 02:11:44;;;;;;;4.07;1.00;;;;;;;;;;5054959;28;20049;-75
2022/11/09 02:14:11;;;;;;;1.83;0.65;;;;;;;;;;5055348;28;20056;-75
2022/11/09 02:16:37;;;;;;;1.85;0.73;;;;;;;;;;5037232;28;20091;-75
2022/11/09 02:19:03;;;;;;;1.60;0.93;;;;;;;;;;5035787;28;20135;-76
2022/11/09 02:21:30;;;;;;;7.53;1.42;;;;;;;;;;5055561;28;20162;-75
2022/11/09 02:23:57;;;;;;;1.85;0.90;;;;;;;;;;5053603;28;20049;-76
2022/11/09 02:26:29;;;;;;;9.88;1.40;;;;;;;;;;5031013;28;20045;-75
2022/11/09 02:28:56;;;;;;;3.05;0.85;;;;;;;;;;5053441;28;20036;-75
2022/11/09 02:31:23;;;;;;;12.30;2.05;;;;;;;;;;5054079;28;20076;-75
2022/11/09 02:33:53;;;;;;;2.03;1.33;;;;;;;;;;5055186;28;21728;-75
2022/11/09 02:36:19;;;;;;;1.33;0.82;;;;;;;;;;5056784;28;20122;-75
2022/11/09 02:38:45;;;;;;;2.65;0.70;;;;;;;;;;5029572;28;20481;-75
2022/11/09 02:41:11;;;;;;;2.35;1.00;;;;;;;;;;5055127;28;20049;-76
2022/11/09 02:43:37;;;;;;;1.80;0.95;;;;;;;;;;5031125;28;20568;-75
2022/11/09 02:46:03;;;;;;;1.88;0.80;;;;;;;;;;5056132;28;20072;-76
2022/11/09 02:48:30;;;;;;;3.83;0.73;;;;;;;;;;5036680;28;20222;-75
2022/11/09 02:50:56;;;;;;;0.90;0.70;;;;;;;;;;5056215;28;20095;-75
2022/11/09 02:53:22;;;;;;;3.45;1.17;;;;;;;;;;5052192;28;20043;-76
2022/11/09 02:55:48;;;;;;;1.98;1.02;;;;;;;;;;5055553;28;20045;-75
2022/11/09 02:58:14;;;;;;;3.10;0.80;;;;;;;;;;5056710;28;20110;-75
2022/11/09 03:00:40;;;;;;;2.15;0.57;;;;;;;;;;5055063;28;20068;-76
2022/11/09 03:03:06;;;;;;;2.38;1.17;;;;;;;;;;5054488;28;20069;-75
2022/11/09 03:05:32;;;;;;;0.88;0.40;;;;;;;;;;5056133;28;20084;-75
2022/11/09 03:08:01;;;;;;;2.88;1.00;;;;;;;;;;5055743;28;20037;-75
2022/11/09 03:10:27;;;;;;;3.58;0.65;;;;;;;;;;5056127;28;20041;-75
2022/11/09 03:12:54;;;;;;;6.72;1.30;;;;;;;;;;5056608;28;20071;-75
2022/11/09 03:15:20;;;;;;;1.83;1.05;;;;;;;;;;5054694;28;20041;-74
2022/11/09 03:17:46;;;;;;;2.10;0.93;;;;;;;;;;5054603;28;20041;-75
2022/11/09 03:20:12;;;;;;;8.30;0.82;;;;;;;;;;5055719;28;20042;-75
2022/11/09 03:22:39;;;;;;;2.78;0.73;;;;;;;;;;5055528;28;20120;-75
2022/11/09 03:25:05;;;;;;;2.90;1.75;;;;;;;;;;5053464;28;20543;-75
2022/11/09 03:27:31;;;;;;;4.28;1.23;;;;;;;;;;5055114;28;20040;-76
2022/11/09 03:29:57;;;;;;;4.57;1.65;;;;;;;;;;5054080;28;20042;-76
2022/11/09 03:32:23;;;;;;;1.60;0.90;;;;;;;;;;5054619;28;20332;-75
2022/11/09 03:34:50;;;;;;;4.28;1.00;;;;;;;;;;5053670;28;20033;-76
2022/11/09 03:37:17;;;;;;;3.88;2.00;;;;;;;;;;5035399;28;20073;-75
2022/11/09 03:39:43;;;;;;;7.60;1.48;;;;;;;;;;5051869;28;20112;-75
2022/11/09 03:42:09;;;;;;;3.03;0.93;;;;;;;;;;5055962;28;20045;-75
2022/11/09 03:44:35;;;;;;;2.55;0.90;;;;;;;;;;5058480;28;20045;-76
2022/11/09 03:47:01;;;;;;;1.30;0.80;;;;;;;;;;5057115;28;20079;-75
2022/11/09 03:49:27;;;;;;;2.97;1.00;;;;;;;;;;5057111;28;20051;-76
2022/11/09 03:51:53;;;;;;;3.00;1.00;;;;;;;;;;5037837;28;20045;-76
2022/11/09 03:54:19;;;;;;;7.85;1.50;;;;;;;;;;5060037;28;20068;-75
2022/11/09 03:56:46;;;;;;;5.03;1.60;;;;;;;;;;5055186;28;20045;-76
2022/11/09 03:59:12;;;;;;;1.50;0.82;;;;;;;;;;5058537;28;20759;-76
2022/11/09 04:01:38;;;;;;;2.30;0.80;;;;;;;;;;5057896;28;20088;-76
2022/11/09 04:04:04;;;;;;;2.63;1.70;;;;;;;;;;5038455;28;20515;-75
2022/11/09 04:06:30;;;;;;;1.65;1.00;;;;;;;;;;5056838;28;20573;-76
2022/11/09 04:08:56;;;;;;;5.32;1.92;;;;;;;;;;5057880;28;20052;-76
2022/11/09 04:11:22;;;;;;;4.07;1.15;;;;;;;;;;5055904;28;20041;-75
2022/11/09 04:13:48;;;;;;;5.63;1.83;;;;;;;;;;5039273;28;20037;-75
2022/11/09 04:16:14;;;;;;;3.25;1.48;;;;;;;;;;5059089;28;20049;-74
2022/11/09 04:18:40;;;;;;;1.88;0.98;;;;;;;;;;5055659;28;20501;-75
2022/11/09 04:21:07;;;;;;;3.55;1.20;;;;;;;;;;5057527;28;20128;-75
2022/11/09 04:23:33;;;;;;;3.90;1.05;;;;;;;;;;5049642;28;20595;-75
2022/11/09 04:25:59;;;;;;;3.05;0.90;;;;;;;;;;5033140;28;20553;-75
2022/11/09 04:28:25;;;;;;;1.30;0.90;;;;;;;;;;5055843;28;20501;-75
2022/11/09 04:30:51;;;;;;;2.80;1.00;;;;;;;;;;5037690;28;20538;-74
2022/11/09 04:33:17;;;;;;;2.60;1.55;;;;;;;;;;5057711;28;22095;-74
2022/11/09 04:35:44;;;;;;;6.07;1.20;;;;;;;;;;5054520;28;20095;-75
2022/11/09 04:38:11;;;;;;;6.03;1.38;;;;;;;;;;5048048;28;20057;-75
2022/11/09 04:40:37;;;;;;;4.50;1.38;;;;;;;;;;5033639;28;20064;-75
2022/11/09 04:43:04;;;;;;;3.42;1.08;;;;;;;;;;5058242;28;20175;-75
2022/11/09 04:45:32;;;;;;;3.63;1.00;;;;;;;;;;5057972;28;20041;-75
2022/11/09 04:48:02;;;;;;;4.35;1.10;;;;;;;;;;5056370;28;20094;-75
2022/11/09 04:50:29;;;;;;;2.40;0.98;;;;;;;;;;5056733;28;20056;-75
2022/11/09 04:52:55;;;;;;;5.85;1.42;;;;;;;;;;5056705;28;20048;-75
2022/11/09 04:55:21;;;;;;;8.40;1.50;;;;;;;;;;5057931;28;20041;-75
2022/11/09 04:57:47;;;;;;;6.45;1.65;;;;;;;;;;5055071;28;20079;-75
2022/11/09 05:00:14;;;;;;;4.80;2.75;;;;;;;;;;5056018;28;20497;-75
2022/11/09 05:02:40;;;;;;;8.45;2.13;;;;;;;;;;5039247;28;20545;-75
2022/11/09 05:05:06;;;;;;;2.85;1.55;;;;;;;;;;5057879;28;20038;-75
2022/11/09 05:07:32;;;;;;;7.65;2.72;;;;;;;;;;5055976;28;20049;-75
2022/11/09 05:09:58;;;;;;;2.22;1.30;;;;;;;;;;5058386;28;20041;-75
2022/11/09 05:12:24;;;;;;;3.42;1.58;;;;;;;;;;5057371;28;20045;-75
2022/11/09 05:14:50;;;;;;;3.92;2.00;;;;;;;;;;5039530;28;20047;-75
2022/11/09 05:17:16;;;;;;;2.90;1.35;;;;;;;;;;5056106;28;20163;-75
2022/11/09 05:19:42;;;;;;;5.97;2.25;;;;;;;;;;5057692;28;20807;-75
2022/11/09 05:24:53;;;;;;;6.20;2.50;;;;;;;;;;5058884;28;20048;-75
2022/11/09 05:27:19;;;;;;;5.45;2.28;;;;;;;;;;5033471;28;20136;-76
2022/11/09 05:29:48;;;;;;;6.22;2.63;;;;;;;;;;5056644;28;20037;-76
2022/11/09 05:32:14;;;;;;;12.48;3.95;;;;;;;;;;5057016;28;20059;-74
2022/11/09 05:34:40;;;;;;;10.48;2.05;;;;;;;;;;5059440;28;20546;-76
2022/11/09 05:37:06;;;;;;;14.40;3.00;;;;;;;;;;5061783;28;20089;-75
2022/11/09 05:39:32;;;;;;;10.95;1.73;;;;;;;;;;5060288;28;20045;-75
2022/11/09 05:41:58;;;;;;;12.52;2.63;;;;;;;;;;5044916;28;20412;-75
2022/11/09 05:44:24;;;;;;;5.80;2.13;;;;;;;;;;5062603;28;20037;-74
2022/11/09 05:46:51;;;;;;;9.30;2.47;;;;;;;;;;5039778;28;20049;-75
2022/11/09 05:49:17;;;;;;;8.05;2.70;;;;;;;;;;5043818;28;20041;-74
2022/11/09 05:51:43;;;;;;;3.42;2.80;;;;;;;;;;5063070;28;20037;-75
2022/11/09 05:54:09;;;;;;;13.77;3.53;;;;;;;;;;5062847;28;20045;-75
2022/11/09 05:56:35;;;;;;;12.18;2.03;;;;;;;;;;5064202;28;20045;-76
2022/11/09 05:59:01;;;;;;;6.00;2.53;;;;;;;;;;5063432;28;20047;-75
2022/11/09 06:01:27;;;;;;;6.75;2.65;;;;;;;;;;5044581;28;20037;-76
2022/11/09 06:03:54;;;;;;;8.18;3.00;;;;;;;;;;5038562;28;20569;-75
2022/11/09 06:06:20;;;;;;;8.52;3.00;;;;;;;;;;5062269;28;20045;-76
2022/11/09 06:08:46;;;;;;;7.32;2.80;;;;;;;;;;5050258;28;20071;-76
2022/11/09 06:11:13;;;;;;;7.45;2.58;;;;;;;;;;5069022;28;20042;-75
2022/11/09 06:13:39;;;;;;;5.72;1.80;;;;;;;;;;5044024;28;20041;-76
2022/11/09 06:16:05;;;;;;;6.80;2.08;;;;;;;;;;5040242;28;20602;-76
2022/11/09 06:18:32;;;;;;;10.02;2.47;;;;;;;;;;5060695;28;20048;-76
2022/11/09 06:21:00;;;;;;;8.55;2.53;;;;;;;;;;5062078;28;20037;-75
2022/11/09 06:23:26;;;;;;;9.13;3.50;;;;;;;;;;5043166;28;20052;-76
2022/11/09 06:25:53;;;;;;;7.70;2.45;;;;;;;;;;5042229;28;20045;-76
2022/11/09 06:28:19;;;;;;;9.48;2.33;;;;;;;;;;5068759;28;20068;-75
2022/11/09 06:30:45;;;;;;;12.00;3.28;;;;;;;;;;5050580;28;20455;-75
2022/11/09 06:33:11;;;;;;;9.25;2.03;;;;;;;;;;5066464;28;20037;-76
2022/11/09 06:35:37;;;;;;;12.10;3.38;;;;;;;;;;5062024;28;20049;-76
2022/11/09 06:38:04;;;;;;;6.85;2.53;;;;;;;;;;5037465;28;20041;-75
2022/11/09 06:40:30;;;;;;;7.10;1.92;;;;;;;;;;5056484;28;20045;-74
2022/11/09 06:42:59;;;;;;;7.00;2.20;;;;;;;;;;5056124;28;20076;-74
2022/11/09 06:45:26;;;;;;;7.50;2.22;;;;;;;;;;5031024;28;20053;-75
2022/11/09 06:47:59;;;;;;;9.20;2.72;;;;;;;;;;5054741;28;20709;-74
2022/11/09 06:50:26;;;;;;;8.35;2.50;;;;;;;;;;5056869;28;20518;-73
2022/11/09 06:52:56;;;;;;;6.07;2.42;;;;;;;;;;5055591;28;20048;-74
2022/11/09 06:55:22;;;;;;;10.23;3.20;;;;;;;;;;5040175;28;20053;-74
2022/11/09 06:57:48;;;;;;;12.73;3.80;;;;;;;;;;5055168;28;20041;-74
2022/11/09 07:00:14;;;;;;;10.23;2.90;;;;;;;;;;5055537;28;20052;-74
2022/11/09 07:02:42;;;;;;;8.25;2.35;;;;;;;;;;5054549;28;20099;-75
2022/11/09 07:05:08;;;;;;;11.50;3.65;;;;;;;;;;5054092;28;20051;-75
2022/11/09 07:07:34;;;;;;;9.48;3.22;;;;;;;;;;5037648;28;20072;-75
2022/11/09 07:10:00;;;;;;;7.15;2.60;;;;;;;;;;5055900;28;20064;-75
2022/11/09 07:12:26;;;;;;;6.95;2.58;;;;;;;;;;5054856;28;20037;-74
2022/11/09 07:14:53;;;;;;;10.15;2.78;;;;;;;;;;5028639;28;22005;-75
2022/11/09 07:17:19;;;;;;;13.20;3.45;;;;;;;;;;5053988;28;20041;-75
2022/11/09 07:19:45;;;;;;;13.10;2.78;;;;;;;;;;5055027;28;20041;-74
2022/11/09 07:22:11;;;;;;;6.93;3.75;;;;;;;;;;5052692;28;20054;-76
2022/11/09 07:24:37;;;;;;;10.90;2.63;;;;;;;;;;5054817;28;20064;-79
2022/11/09 07:27:03;;;;;;;6.80;1.95;;;;;;;;;;5028348;28;20103;-78
2022/11/09 07:29:29;;;;;;;8.32;2.22;;;;;;;;;;5042598;28;20041;-75
2022/11/09 07:31:56;;;;;;;12.60;2.75;;;;;;;;;;5033444;28;20033;-76
2022/11/09 07:34:22;;;;;;;7.68;2.70;;;;;;;;;;5053416;28;20077;-77
2022/11/09 07:36:48;;;;;;;6.28;2.33;;;;;;;;;;5052894;28;20045;-76
2022/11/09 07:39:14;;;;;;;7.35;2.60;;;;;;;;;;5033811;28;21242;-76
2022/11/09 07:41:40;;;;;;;13.80;4.28;;;;;;;;;;5027542;28;20231;-76
2022/11/09 07:44:06;;;;;;;5.43;2.38;;;;;;;;;;5053859;28;20041;-76
2022/11/09 07:46:34;;;;;;;4.45;2.13;;;;;;;;;;5053156;28;20616;-76
2022/11/09 07:49:00;;;;;;;10.50;2.83;;;;;;;;;;5049959;28;20041;-76
2022/11/09 07:51:26;;;;;;;7.20;2.00;;;;;;;;;;5054270;28;20047;-75
2022/11/09 07:53:52;;;;;;;11.60;2.40;;;;;;;;;;5052340;28;20045;-77
2022/11/09 07:56:18;;;;;;;9.85;2.30;;;;;;;;;;5051707;28;20142;-77
2022/11/09 07:58:44;;;;;;;6.32;2.33;;;;;;;;;;5052560;28;20045;-75
2022/11/09 08:01:11;;;;;;;8.90;2.47;;;;;;;;;;5056431;28;20080;-77
2022/11/09 08:03:37;;;;;;;15.35;2.47;;;;;;;;;;5052329;28;20470;-74
2022/11/09 08:06:03;;;;;;;9.95;2.05;;;;;;;;;;5056487;28;20040;-75
2022/11/09 08:08:29;;;;;;;10.35;3.35;;;;;;;;;;5055789;28;20041;-75
2022/11/09 08:10:56;;;;;;;10.85;2.50;;;;;;;;;;5054312;28;20160;-75
2022/11/09 08:13:22;;;;;;;6.50;2.55;;;;;;;;;;5056041;28;20824;-77
2022/11/09 08:15:48;;;;;;;7.28;1.90;;;;;;;;;;5056795;28;20096;-75
2022/11/09 08:18:16;;;;;;;11.00;4.10;;;;;;;;;;5056232;28;20064;-76
2022/11/09 08:20:42;;;;;;;8.80;2.35;;;;;;;;;;5032910;28;20136;-75
2022/11/09 08:23:11;;;;;;;9.48;2.47;;;;;;;;;;5032661;28;20102;-75
2022/11/09 08:25:37;;;;;;;9.85;3.95;;;;;;;;;;5054164;28;20037;-74
2022/11/09 08:28:03;;;;;;;12.98;2.78;;;;;;;;;;5057504;28;20041;-75
2022/11/09 08:30:29;;;;;;;13.57;2.95;;;;;;;;;;5058026;28;21094;-75
2022/11/09 08:32:55;;;;;;;13.15;4.45;;;;;;;;;;5041277;28;20135;-74
2022/11/09 08:35:22;;;;;;;15.15;4.75;;;;;;;;;;5059053;28;20065;-75
2022/11/09 08:37:49;;;;;;;15.02;2.40;;;;;;;;;;5041511;28;20033;-76
2022/11/09 08:40:16;;;;;;;7.53;3.08;;;;;;;;;;5059702;28;20048;-75
2022/11/09 08:42:42;;;;;;;9.63;3.35;;;;;;;;;;5058830;28;20072;-75
2022/11/09 08:45:09;;;;;;;11.90;2.85;;;;;;;;;;5058143;28;20073;-74
2022/11/09 08:47:35;;;;;;;6.30;2.40;;;;;;;;;;5041566;28;20095;-76
2022/11/09 08:50:03;;;;;;;8.02;2.47;;;;;;;;;;5035218;28;20978;-75
2022/11/09 08:52:29;;;;;;;5.00;2.42;;;;;;;;;;5059860;28;20087;-75
2022/11/09 08:54:56;;;;;;;10.52;4.60;;;;;;;;;;5059882;28;20049;-75
2022/11/09 08:57:23;;;;;;;7.53;2.60;;;;;;;;;;5059988;28;20051;-76
2022/11/09 08:59:49;;;;;;;11.23;2.38;;;;;;;;;;5035144;28;20049;-76
2022/11/09 09:02:16;;;;;;;8.05;2.30;;;;;;;;;;5057989;28;20048;-76
2022/11/09 09:04:42;;;;;;;8.70;2.53;;;;;;;;;;5059495;28;20601;-76
2022/11/09 09:07:10;;;;;;;9.27;2.88;;;;;;;;;;5059147;28;20053;-76
2022/11/09 09:09:39;;;;;;;8.40;2.00;;;;;;;;;;5060845;28;20537;-75
2022/11/09 09:12:06;;;;;;;11.15;3.28;;;;;;;;;;5041593;28;20088;-76
2022/11/09 09:14:32;;;;;;;10.27;2.78;;;;;;;;;;5060254;28;20045;-76
2022/11/09 09:16:58;;;;;;;7.45;2.58;;;;;;;;;;5059579;28;20041;-76
2022/11/09 09:19:24;;;;;;;8.60;2.15;;;;;;;;;;5060800;28;20041;-76
2022/11/09 09:21:50;;;;;;;9.60;3.03;;;;;;;;;;5059419;28;20091;-75
2022/11/09 09:24:16;;;;;;;11.35;2.85;;;;;;;;;;5035402;28;20060;-76
2022/11/09 09:26:44;;;;;;;8.60;2.95;;;;;;;;;;5058968;28;20041;-76
2022/11/09 09:29:12;;;;;;;5.88;3.72;;;;;;;;;;5059336;28;21663;-76
2022/11/09 09:31:38;;;;;;;13.48;2.83;;;;;;;;;;5035312;28;20060;-77
2022/11/09 09:34:04;;;;;;;12.15;3.20;;;;;;;;;;5058098;28;20037;-76
2022/11/09 09:36:30;;;;;;;6.88;2.85;;;;;;;;;;5035170;28;20036;-77
2022/11/09 09:38:57;;;;;;;6.95;2.78;;;;;;;;;;5058655;28;20076;-76
2022/11/09 09:41:36;;;;;;;14.63;3.03;;;;;;;;;;5059545;28;20045;-76
2022/11/09 09:44:22;;;;;;;9.65;2.92;;;;;;;;;;5055351;28;20084;-76
2022/11/09 09:46:48;;;;;;;8.20;2.40;;;;;;;;;;5040655;28;20759;-75
2022/11/09 09:49:34;;;;;;;10.98;2.88;;;;;;;;;;5035962;28;20045;-76
2022/11/09 09:52:04;;;;;;;7.25;1.95;;;;;;;;;;5057362;28;20064;-75
2022/11/09 09:54:38;;;;;;;7.68;3.65;;;;;;;;;;5034263;28;20056;-76
2022/11/09 09:57:11;;;;;;;12.38;2.53;;;;;;;;;;5040718;28;20037;-75
2022/11/09 09:59:41;;;;;;;13.13;2.90;;;;;;;;;;5059199;28;20045;-77
2022/11/09 10:02:27;;;;;;;5.80;2.50;;;;;;;;;;5057266;28;20041;-77
2022/11/09 10:04:55;;;;;;;7.15;1.95;;;;;;;;;;5057086;28;20047;-78
2022/11/09 10:07:29;;;;;;;10.60;2.55;;;;;;;;;;5059110;28;20036;-76
2022/11/09 10:10:01;;;;;;;7.07;2.63;;;;;;;;;;5058301;28;20052;-77
2022/11/09 10:12:28;;;;;;;8.27;2.08;;;;;;;;;;5040503;28;20518;-77
2022/11/09 10:15:04;;;;;;;10.85;2.60;;;;;;;;;;5058415;28;20049;-76
2022/11/09 10:17:37;;;;;;;8.88;2.78;;;;;;;;;;5058383;28;20071;-77
2022/11/09 10:20:23;;;;;;;8.88;2.83;;;;;;;;;;5034836;28;20101;-76
2022/11/09 10:23:07;;;;;;;9.35;2.05;;;;;;;;;;5040050;28;20045;-76
2022/11/09 10:25:39;;;;;;;5.18;2.35;;;;;;;;;;5039559;28;20052;-74
2022/11/09 10:28:11;;;;;;;11.50;2.60;;;;;;;;;;5037913;28;20041;-76
2022/11/09 10:30:38;;;;;;;6.95;2.20;;;;;;;;;;5058223;28;20039;-78
2022/11/09 10:33:10;;;;;;;14.90;2.58;;;;;;;;;;5058976;28;20044;-77
2022/11/09 10:35:51;;;;;;;9.70;2.15;;;;;;;;;;5058502;28;20597;-76
2022/11/09 10:38:20;;;;;;;5.50;2.80;;;;;;;;;;5058672;28;20041;-76
2022/11/09 10:40:52;;;;;;;8.23;1.95;;;;;;;;;;5058218;28;20075;-76
2022/11/09 10:43:18;;;;;;;6.55;1.77;;;;;;;;;;5056811;28;20049;-75
2022/11/09 10:45:46;;;;;;;6.30;2.00;;;;;;;;;;5056227;28;20423;-76
2022/11/09 10:48:13;;;;;;;10.18;3.30;;;;;;;;;;5032753;28;20922;-75
2022/11/09 10:50:40;;;;;;;8.50;1.98;;;;;;;;;;5056226;28;20166;-74
2022/11/09 10:53:17;;;;;;;16.92;2.83;;;;;;;;;;5055145;28;20053;-75
2022/11/09 10:55:51;;;;;;;7.75;2.33;;;;;;;;;;5039688;28;20114;-75
2022/11/09 10:58:17;;;;;;;5.88;2.10;;;;;;;;;;5058111;28;20129;-74
2022/11/09 11:00:56;;;;;;;5.85;1.77;;;;;;;;;;5056405;28;20044;-75
2022/11/09 11:03:23;;;;;;;11.32;3.70;;;;;;;;;;5057664;28;20114;-76
2022/11/09 11:06:09;;;;;;;11.15;2.85;;;;;;;;;;5057397;28;20041;-74
2022/11/09 11:08:37;;;;;;;5.93;1.02;;;;;;;;;;5046083;28;20053;-74
2022/11/09 11:11:26;;;;;;;5.65;2.53;;;;;;;;;;5056621;28;20523;-74
2022/11/09 11:14:05;;;;;;;8.77;2.17;;;;;;;;;;5046858;28;20059;-74
2022/11/09 11:16:35;;;;;;;8.80;1.80;;;;;;;;;;5058038;28;20045;-75
2022/11/09 11:19:01;;;;;;;7.97;1.70;;;;;;;;;;5057954;28;20052;-75
2022/11/09 11:21:28;;;;;;;9.25;2.63;;;;;;;;;;5059399;28;20041;-74
2022/11/09 11:24:09;;;;;;;9.70;2.75;;;;;;;;;;5037645;28;20048;-74
2022/11/09 11:26:50;;;;;;;6.30;1.60;;;;;;;;;;5058309;28;20121;-75
2022/11/09 11:29:26;;;;;;;5.93;2.00;;;;;;;;;;5057352;28;20071;-75
2022/11/09 11:31:52;;;;;;;7.97;1.88;;;;;;;;;;5039398;28;20037;-74
2022/11/09 11:34:18;;;;;;;3.35;1.48;;;;;;;;;;5057452;28;20171;-75
2022/11/09 11:36:58;;;;;;;5.93;2.00;;;;;;;;;;5038242;28;20092;-74
2022/11/09 11:39:45;;;;;;;9.07;2.88;;;;;;;;;;5056989;28;20033;-76
2022/11/09 11:42:23;;;;;;;11.88;2.60;;;;;;;;;;5038131;28;20119;-75
2022/11/09 11:44:55;;;;;;;8.85;2.50;;;;;;;;;;5055912;28;20045;-75
2022/11/09 11:47:25;;;;;;;9.75;3.20;;;;;;;;;;5030468;28;20044;-74
2022/11/09 11:49:57;;;;;;;16.88;5.32;;;;;;;;;;5056578;28;20037;-74
2022/11/09 11:52:24;;;;;;;;;;;;;;;;;;5056920;28;20118;-73
2022/11/09 11:54:57;;;;;;;11.77;2.50;;;;;;;;;;5032141;28;20348;-75
2022/11/09 11:57:28;;;;;;;7.53;1.90;;;;;;;;;;5038071;28;20045;-75
2022/11/09 12:00:00;;;;;;;4.88;2.00;;;;;;;;;;5037264;28;20041;-75
2022/11/09 12:02:44;;;;;;;5.63;2.17;;;;;;;;;;5055649;28;20142;-74
2022/11/09 12:05:10;;;;;;;10.20;3.47;;;;;;;;;;5057505;28;20045;-74
2022/11/09 12:07:57;;;;;;;8.10;2.30;;;;;;;;;;5058705;28;20571;-75
2022/11/09 12:10:45;;;;;;;8.90;2.25;;;;;;;;;;5058046;28;20047;-75
2022/11/09 12:13:30;;;;;;;7.53;1.75;;;;;;;;;;5034749;28;20056;-74
2022/11/09 12:16:09;;;;;;;9.43;2.10;;;;;;;;;;5034320;28;20158;-75
2022/11/09 12:18:57;;;;;;;8.07;2.05;;;;;;;;;;5058372;28;20048;-75
2022/11/09 12:21:32;;;;;;;8.45;2.28;;;;;;;;;;5058097;28;20519;-74
2022/11/09 12:24:18;;;;;;;5.57;1.73;;;;;;;;;;5058370;28;20518;-74
2022/11/09 12:26:56;;;;;;;9.55;2.30;;;;;;;;;;5059689;28;20071;-74
2022/11/09 12:29:26;;;;;;;10.50;3.08;;;;;;;;;;5057911;28;20044;-74
2022/11/09 12:32:11;;;;;;;14.10;3.95;;;;;;;;;;5041287;28;20630;-75
2022/11/09 12:34:43;;;;;;;8.63;2.78;;;;;;;;;;5059225;28;20045;-75
2022/11/09 12:37:09;;;;;;;;;;;;;;;;;;5058787;28;20041;-74
2022/11/09 12:39:41;;;;;;;11.55;2.55;;;;;;;;;;5042006;28;19921;-74
2022/11/09 12:42:15;;;;;;;10.77;3.78;;;;;;;;;;5058682;28;20048;-74
2022/11/09 12:44:59;;;;;;;10.75;3.92;;;;;;;;;;5040865;28;20417;-74
2022/11/09 12:47:30;;;;;;;7.85;3.60;;;;;;;;;;5034486;28;20049;-73
2022/11/09 12:49:56;;;;;;;8.35;2.92;;;;;;;;;;5058858;28;20036;-74
2022/11/09 12:52:25;;;;;;;12.50;3.20;;;;;;;;;;5040189;28;20049;-74
2022/11/09 12:54:52;;;;;;;4.45;2.03;;;;;;;;;;5058485;28;20633;-74
2022/11/09 12:57:23;;;;;;;14.48;5.03;;;;;;;;;;5058444;28;20127;-74
2022/11/09 12:59:56;;;;;;;9.32;2.97;;;;;;;;;;5057367;28;20041;-75
2022/11/09 13:02:33;;;;;;;6.13;1.75;;;;;;;;;;5059357;28;20175;-74
2022/11/09 13:05:00;;;;;;;5.75;1.77;;;;;;;;;;5056195;28;20041;-75
2022/11/09 13:07:31;;;;;;;4.05;1.65;;;;;;;;;;5059532;28;20045;-74
2022/11/09 13:09:59;;;;;;;4.35;2.33;;;;;;;;;;5058315;28;20041;-73
2022/11/09 13:12:37;;;;;;;7.82;2.67;;;;;;;;;;5058526;28;20052;-75
2022/11/09 13:15:23;;;;;;;9.40;2.72;;;;;;;;;;5041420;28;20037;-75
2022/11/09 13:18:00;;;;;;;6.63;2.60;;;;;;;;;;5039242;28;20052;-74
2022/11/09 13:20:32;;;;;;;7.55;2.05;;;;;;;;;;5056077;28;20522;-74
2022/11/09 13:22:59;;;;;;;14.75;4.40;;;;;;;;;;5058262;28;20043;-74
2022/11/09 13:25:46;;;;;;;6.68;2.25;;;;;;;;;;5038345;28;20048;-74
2022/11/09 13:28:44;;;;;;;8.50;1.92;;;;;;;;;;5056874;28;20186;-73
2022/11/09 13:31:11;;;;;;;5.80;2.35;;;;;;;;;;5019486;28;20053;-74
2022/11/09 13:33:38;;;;;;;5.80;2.55;;;;;;;;;;5059504;28;20041;-73
2022/11/09 13:36:07;;;;;;;8.38;2.42;;;;;;;;;;5039127;28;20534;-74
2022/11/09 13:38:34;;;;;;;6.38;2.63;;;;;;;;;;5039162;28;20049;-74
2022/11/09 13:41:01;;;;;;;8.43;3.50;;;;;;;;;;5030585;28;20076;-74
2022/11/09 13:43:36;;;;;;;12.85;4.88;;;;;;;;;;5055490;28;20041;-74
2022/11/09 13:46:22;;;;;;;4.63;1.90;;;;;;;;;;5054752;28;20251;-73
2022/11/09 13:48:49;;;;;;;5.80;1.48;;;;;;;;;;5031754;28;20056;-76
2022/11/09 13:51:20;;;;;;;9.68;2.20;;;;;;;;;;5038505;28;20498;-73
2022/11/09 13:53:55;;;;;;;9.57;1.83;;;;;;;;;;5058564;28;20118;-75
2022/11/09 13:56:23;;;;;;;5.38;1.73;;;;;;;;;;5039684;28;20048;-74
2022/11/09 13:58:50;;;;;;;6.90;1.73;;;;;;;;;;5057010;28;20068;-75
2022/11/09 14:01:30;;;;;;;2.60;1.30;;;;;;;;;;5057685;28;20095;-75
2022/11/09 14:03:57;;;;;;;3.28;2.03;;;;;;;;;;5056884;28;20080;-74
2022/11/09 14:06:23;;;;;;;8.25;3.15;;;;;;;;;;5056834;28;20118;-74
2022/11/09 14:08:49;;;;;;;8.45;2.58;;;;;;;;;;5032743;28;20441;-73
2022/11/09 14:11:28;;;;;;;8.23;2.47;;;;;;;;;;5055600;28;20063;-74
2022/11/09 14:14:00;;;;;;;7.07;2.50;;;;;;;;;;5058158;28;20137;-74
2022/11/09 14:16:26;;;;;;;;;;;;;;;;;;5037416;28;20098;-74
2022/11/09 14:19:04;;;;;;;6.03;2.70;;;;;;;;;;5058081;28;20311;-74
2022/11/09 14:21:40;;;;;;;9.07;3.20;;;;;;;;;;5057868;28;20135;-74
2022/11/09 14:24:21;;;;;;;8.20;3.28;;;;;;;;;;5038679;28;20052;-74
2022/11/09 14:27:04;;;;;;;11.93;2.63;;;;;;;;;;5057421;28;20932;-74
2022/11/09 14:29:33;;;;;;;7.45;2.03;;;;;;;;;;5057572;28;20084;-75
2022/11/09 14:32:00;;;;;;;3.53;1.77;;;;;;;;;;5056276;28;20045;-75
2022/11/09 14:34:26;;;;;;;5.35;3.25;;;;;;;;;;5057329;28;20041;-74
2022/11/09 14:36:52;;;;;;;8.40;2.53;;;;;;;;;;5057370;28;20041;-74
2022/11/09 14:39:26;;;;;;;4.60;1.70;;;;;;;;;;5038481;28;20037;-74
2022/11/09 14:41:53;;;;;;;6.95;1.80;;;;;;;;;;5038888;28;20037;-75
2022/11/09 14:44:25;;;;;;;14.82;4.45;;;;;;;;;;5039306;28;20131;-75
2022/11/09 14:46:52;;;;;;;14.18;3.50;;;;;;;;;;5056889;28;20148;-74
2022/11/09 14:49:19;;;;;;;15.82;5.40;;;;;;;;;;5038730;28;20059;-75
2022/11/09 14:51:47;;;;;;;12.85;4.43;;;;;;;;;;5056584;28;20044;-75
2022/11/09 14:54:14;;;;;;;13.63;3.75;;;;;;;;;;5055754;28;20059;-72